AAL731 EGLL-KCLT
Flight info
| Callsign | AAL731 |
|---|---|
| Flight time | N/A |
| Altitude | 36000 |
| Route | ULTIB1J ULTIB T420 TNT UL28 PENIL M144 BAGSO DCT GMN DCT INKUR DCT MALOT/M084F360 DCT 53N020W 52N030W 5030N04000W 49N050W DCT JOOPY/N0481F360 N328A TUSKY Q475 COPLY Q75 GVE DCT AIROW CHSLY6 |
| Aircraft | B77W/H-SDE2E3FGHIJ5LORVWXY/LB1D1 |
Departure
| Time | 2026-05-07 07:41 |
|---|---|
| Airport | London Heathrow Airport (EGLL) |
Arrival
| Time | N/A |
|---|---|
| Airport | Charlotte Douglas International Airport (KCLT) |
| Time | Latitude | Longitude | Altitude | Speed | Heading |
|---|---|---|---|---|---|
| 2026-05-07 07:10 | 51.47262 | -0.46311 | 97 ft | 0 kts | 56° |
| 2026-05-07 07:27 | 51.47263 | -0.46311 | 97 ft | 0 kts | 56° |
| 2026-05-07 07:27 | 51.47263 | -0.46310 | 97 ft | 0 kts | 56° |
| 2026-05-07 07:28 | 51.47254 | -0.46330 | 97 ft | 3 kts | 56° |
| 2026-05-07 07:28 | 51.47239 | -0.46361 | 97 ft | 3 kts | 39° |
| 2026-05-07 07:28 | 51.47218 | -0.46378 | 97 ft | 3 kts | 13° |
| 2026-05-07 07:28 | 51.47196 | -0.46379 | 97 ft | 2 kts | 345° |
| 2026-05-07 07:29 | 51.47180 | -0.46365 | 97 ft | 1 kts | 328° |
| 2026-05-07 07:29 | 51.47185 | -0.46370 | 97 ft | 3 kts | 327° |
| 2026-05-07 07:29 | 51.47208 | -0.46392 | 97 ft | 3 kts | 328° |
| 2026-05-07 07:29 | 51.47226 | -0.46419 | 97 ft | 3 kts | 308° |
| 2026-05-07 07:30 | 51.47239 | -0.46455 | 97 ft | 3 kts | 295° |
| 2026-05-07 07:30 | 51.47240 | -0.46486 | 97 ft | 3 kts | 264° |
| 2026-05-07 07:30 | 51.47239 | -0.46529 | 97 ft | 3 kts | 269° |
| 2026-05-07 07:30 | 51.47239 | -0.46545 | 97 ft | 0 kts | 270° |
| 2026-05-07 07:36 | 51.47237 | -0.46669 | 97 ft | 16 kts | 270° |
| 2026-05-07 07:36 | 51.47229 | -0.46826 | 98 ft | 12 kts | 240° |
| 2026-05-07 07:36 | 51.47158 | -0.46864 | 97 ft | 14 kts | 181° |
| 2026-05-07 07:37 | 51.47042 | -0.46865 | 98 ft | 17 kts | 180° |
| 2026-05-07 07:37 | 51.46911 | -0.46862 | 98 ft | 20 kts | 179° |
| 2026-05-07 07:37 | 51.46765 | -0.46861 | 98 ft | 21 kts | 180° |
| 2026-05-07 07:37 | 51.46657 | -0.46931 | 97 ft | 15 kts | 262° |
| 2026-05-07 07:38 | 51.46656 | -0.47143 | 98 ft | 20 kts | 270° |
| 2026-05-07 07:38 | 51.46655 | -0.47376 | 98 ft | 20 kts | 270° |
| 2026-05-07 07:38 | 51.46654 | -0.47626 | 98 ft | 23 kts | 270° |
| 2026-05-07 07:38 | 51.46653 | -0.47873 | 98 ft | 21 kts | 270° |
| 2026-05-07 07:39 | 51.46652 | -0.48107 | 98 ft | 21 kts | 271° |
| 2026-05-07 07:39 | 51.46652 | -0.48335 | 98 ft | 20 kts | 270° |
| 2026-05-07 07:39 | 51.46652 | -0.48543 | 98 ft | 17 kts | 270° |
| 2026-05-07 07:39 | 51.46649 | -0.48689 | 98 ft | 10 kts | 255° |
| 2026-05-07 07:40 | 51.46598 | -0.48769 | 98 ft | 10 kts | 206° |
| 2026-05-07 07:40 | 51.46524 | -0.48780 | 98 ft | 12 kts | 162° |
| 2026-05-07 07:40 | 51.46478 | -0.48640 | 98 ft | 19 kts | 94° |
| 2026-05-07 07:40 | 51.46478 | -0.48430 | 98 ft | 33 kts | 90° |
| 2026-05-07 07:41 | 51.46481 | -0.47649 | 98 ft | 113 kts | 91° |
| 2026-05-07 07:41 | 51.46485 | -0.45904 | 139 ft | 195 kts | 90° |
| 2026-05-07 07:41 | 51.46471 | -0.43529 | 924 ft | 228 kts | 93° |
| 2026-05-07 07:41 | 51.46467 | -0.41006 | 2541 ft | 238 kts | 95° |
| 2026-05-07 07:42 | 51.46026 | -0.38472 | 3953 ft | 255 kts | 119° |
| 2026-05-07 07:42 | 51.44857 | -0.36316 | 5280 ft | 275 kts | 145° |
| 2026-05-07 07:42 | 51.43076 | -0.35284 | 6793 ft | 283 kts | 180° |
| 2026-05-07 07:42 | 51.41280 | -0.35857 | 8677 ft | 274 kts | 206° |
| 2026-05-07 07:43 | 51.39755 | -0.37647 | 9620 ft | 284 kts | 229° |
| 2026-05-07 07:43 | 51.38807 | -0.40630 | 9611 ft | 318 kts | 259° |
| 2026-05-07 07:43 | 51.38800 | -0.44275 | 9686 ft | 347 kts | 282° |
| 2026-05-07 07:43 | 51.39357 | -0.48006 | 10802 ft | 345 kts | 285° |
| 2026-05-07 07:44 | 51.40186 | -0.51474 | 12162 ft | 333 kts | 300° |
| 2026-05-07 07:44 | 51.41528 | -0.54344 | 13428 ft | 324 kts | 315° |
| 2026-05-07 07:44 | 51.43284 | -0.56534 | 14408 ft | 324 kts | 329° |
| 2026-05-07 07:44 | 51.45377 | -0.57976 | 14840 ft | 341 kts | 345° |
| 2026-05-07 07:45 | 51.47782 | -0.58440 | 15210 ft | 359 kts | 2° |
| 2026-05-07 07:45 | 51.50267 | -0.57736 | 15607 ft | 375 kts | 17° |
| 2026-05-07 07:45 | 51.52805 | -0.56462 | 16084 ft | 389 kts | 18° |
| 2026-05-07 07:45 | 51.55436 | -0.55095 | 16577 ft | 404 kts | 18° |
| 2026-05-07 07:46 | 51.58110 | -0.53702 | 17146 ft | 414 kts | 18° |
| 2026-05-07 07:46 | 51.60860 | -0.52268 | 17924 ft | 419 kts | 18° |
| 2026-05-07 07:46 | 51.63633 | -0.50819 | 18695 ft | 424 kts | 18° |
| 2026-05-07 07:46 | 51.66461 | -0.49340 | 19476 ft | 428 kts | 18° |
| 2026-05-07 07:47 | 51.69283 | -0.47862 | 20215 ft | 432 kts | 18° |
| 2026-05-07 07:47 | 51.72129 | -0.46369 | 20938 ft | 437 kts | 18° |
| 2026-05-07 07:47 | 51.75092 | -0.45067 | 21654 ft | 440 kts | 11° |
| 2026-05-07 07:47 | 51.78128 | -0.44545 | 22360 ft | 444 kts | 2° |
| 2026-05-07 07:48 | 51.81206 | -0.44791 | 23023 ft | 448 kts | 353° |
| 2026-05-07 07:48 | 51.84255 | -0.45828 | 23674 ft | 452 kts | 344° |
| 2026-05-07 07:48 | 51.87150 | -0.47641 | 24475 ft | 452 kts | 335° |
| 2026-05-07 07:48 | 51.89875 | -0.50171 | 25190 ft | 455 kts | 328° |
| 2026-05-07 07:49 | 51.92540 | -0.52970 | 25510 ft | 465 kts | 328° |
| 2026-05-07 07:49 | 51.95301 | -0.55835 | 25918 ft | 472 kts | 329° |
| 2026-05-07 07:49 | 51.98070 | -0.58663 | 26477 ft | 476 kts | 329° |
| 2026-05-07 07:49 | 52.00901 | -0.61521 | 27120 ft | 479 kts | 330° |
| 2026-05-07 07:50 | 52.03706 | -0.64332 | 27702 ft | 482 kts | 330° |
| 2026-05-07 07:50 | 52.06610 | -0.67229 | 28269 ft | 486 kts | 329° |
| 2026-05-07 07:50 | 52.09501 | -0.70103 | 28785 ft | 491 kts | 329° |
| 2026-05-07 07:50 | 52.12403 | -0.72984 | 29310 ft | 495 kts | 330° |
| 2026-05-07 07:51 | 52.15355 | -0.75913 | 30000 ft | 495 kts | 330° |
| 2026-05-07 07:51 | 52.18276 | -0.78810 | 30880 ft | 491 kts | 330° |
| 2026-05-07 07:51 | 52.21154 | -0.81667 | 31701 ft | 487 kts | 330° |
| 2026-05-07 07:51 | 52.24034 | -0.84527 | 32315 ft | 487 kts | 330° |
| 2026-05-07 07:52 | 52.26940 | -0.87415 | 32868 ft | 488 kts | 330° |
| 2026-05-07 07:52 | 52.29814 | -0.90273 | 33441 ft | 487 kts | 330° |
| 2026-05-07 07:52 | 52.32698 | -0.93146 | 34067 ft | 485 kts | 330° |
| 2026-05-07 07:52 | 52.35528 | -0.95969 | 34608 ft | 483 kts | 330° |
| 2026-05-07 07:53 | 52.38382 | -0.98819 | 35092 ft | 483 kts | 330° |
| 2026-05-07 07:53 | 52.41255 | -1.01692 | 35437 ft | 483 kts | 330° |
| 2026-05-07 07:53 | 52.44091 | -1.04532 | 35748 ft | 482 kts | 330° |
| 2026-05-07 07:53 | 52.46967 | -1.07417 | 35975 ft | 484 kts | 329° |
| 2026-05-07 07:54 | 52.49835 | -1.10297 | 36028 ft | 484 kts | 330° |
| 2026-05-07 07:54 | 52.55513 | -1.16014 | 36031 ft | 482 kts | 329° |
| 2026-05-07 07:55 | 52.61219 | -1.21772 | 36072 ft | 485 kts | 329° |
| 2026-05-07 07:55 | 52.66930 | -1.27552 | 36077 ft | 484 kts | 329° |
| 2026-05-07 07:56 | 52.72662 | -1.33373 | 36048 ft | 484 kts | 329° |
| 2026-05-07 07:56 | 52.78405 | -1.39229 | 36081 ft | 485 kts | 329° |
| 2026-05-07 07:57 | 52.84081 | -1.45035 | 36106 ft | 484 kts | 330° |
| 2026-05-07 07:57 | 52.89797 | -1.50900 | 36084 ft | 484 kts | 329° |
| 2026-05-07 07:58 | 52.95470 | -1.56738 | 36078 ft | 485 kts | 329° |
| 2026-05-07 07:58 | 53.01186 | -1.62640 | 36066 ft | 483 kts | 329° |
| 2026-05-07 07:59 | 53.06868 | -1.68525 | 36047 ft | 484 kts | 328° |
| 2026-05-07 07:59 | 53.12601 | -1.74487 | 36023 ft | 485 kts | 329° |
| 2026-05-07 08:00 | 53.18292 | -1.80428 | 36019 ft | 484 kts | 328° |
| 2026-05-07 08:00 | 53.23375 | -1.87694 | 36013 ft | 486 kts | 311° |
| 2026-05-07 08:01 | 53.27039 | -1.97068 | 36043 ft | 488 kts | 297° |
| 2026-05-07 08:01 | 53.30067 | -2.07187 | 36041 ft | 486 kts | 296° |
| 2026-05-07 08:02 | 53.33065 | -2.17297 | 36063 ft | 485 kts | 296° |
| 2026-05-07 08:02 | 53.35908 | -2.27493 | 36071 ft | 486 kts | 290° |
| 2026-05-07 08:03 | 53.37992 | -2.38166 | 36068 ft | 486 kts | 288° |
| 2026-05-07 08:03 | 53.40031 | -2.48915 | 36051 ft | 487 kts | 288° |
| 2026-05-07 08:04 | 53.42073 | -2.59726 | 36052 ft | 486 kts | 288° |
| 2026-05-07 08:04 | 53.44091 | -2.70472 | 36048 ft | 487 kts | 287° |
| 2026-05-07 08:05 | 53.46096 | -2.81208 | 36031 ft | 485 kts | 286° |
| 2026-05-07 08:05 | 53.48095 | -2.91969 | 36042 ft | 486 kts | 287° |
| 2026-05-07 08:06 | 53.50089 | -3.02767 | 36046 ft | 483 kts | 287° |
| 2026-05-07 08:06 | 53.52059 | -3.13497 | 36054 ft | 484 kts | 287° |
| 2026-05-07 08:07 | 53.54034 | -3.24319 | 36055 ft | 484 kts | 287° |
| 2026-05-07 08:07 | 53.55988 | -3.35088 | 36047 ft | 485 kts | 286° |
| 2026-05-07 08:08 | 53.57928 | -3.45843 | 36055 ft | 481 kts | 286° |
| 2026-05-07 08:08 | 53.59867 | -3.56655 | 36042 ft | 486 kts | 286° |
| 2026-05-07 08:09 | 53.61566 | -3.67594 | 36001 ft | 483 kts | 276° |
| 2026-05-07 08:09 | 53.62127 | -3.78806 | 35999 ft | 482 kts | 272° |
| 2026-05-07 08:10 | 53.62583 | -3.90013 | 36005 ft | 483 kts | 272° |
| 2026-05-07 08:10 | 53.63030 | -4.01235 | 36006 ft | 484 kts | 272° |
| 2026-05-07 08:11 | 53.63470 | -4.12488 | 35990 ft | 480 kts | 272° |
| 2026-05-07 08:11 | 53.63899 | -4.23729 | 35996 ft | 483 kts | 272° |
| 2026-05-07 08:12 | 53.64319 | -4.34992 | 35988 ft | 481 kts | 272° |
| 2026-05-07 08:12 | 53.64723 | -4.46109 | 35992 ft | 482 kts | 272° |
| 2026-05-07 08:13 | 53.65122 | -4.57399 | 35995 ft | 483 kts | 272° |
| 2026-05-07 08:13 | 53.65509 | -4.68626 | 35991 ft | 479 kts | 271° |
| 2026-05-07 08:14 | 53.65883 | -4.79784 | 35988 ft | 482 kts | 271° |
| 2026-05-07 08:14 | 53.66251 | -4.91006 | 35982 ft | 479 kts | 271° |
| 2026-05-07 08:15 | 53.66610 | -5.02205 | 35986 ft | 482 kts | 271° |
| 2026-05-07 08:15 | 53.66959 | -5.13403 | 35987 ft | 480 kts | 271° |
| 2026-05-07 08:16 | 53.67291 | -5.24606 | 35981 ft | 480 kts | 271° |
| 2026-05-07 08:16 | 53.67609 | -5.35767 | 35985 ft | 479 kts | 271° |
| 2026-05-07 08:17 | 53.67918 | -5.47020 | 35974 ft | 481 kts | 271° |
| 2026-05-07 08:17 | 53.67674 | -5.58162 | 35973 ft | 478 kts | 264° |
| 2026-05-07 08:18 | 53.67200 | -5.69329 | 35986 ft | 477 kts | 264° |
| 2026-05-07 08:18 | 53.66720 | -5.80451 | 35971 ft | 481 kts | 264° |
| 2026-05-07 08:19 | 53.66231 | -5.91575 | 35972 ft | 477 kts | 264° |
| 2026-05-07 08:19 | 53.65731 | -6.02710 | 35977 ft | 480 kts | 264° |
| 2026-05-07 08:20 | 53.65222 | -6.13854 | 35959 ft | 475 kts | 263° |
| 2026-05-07 08:20 | 53.64710 | -6.24920 | 35964 ft | 478 kts | 264° |
| 2026-05-07 08:21 | 53.64274 | -6.36084 | 35971 ft | 477 kts | 264° |
| 2026-05-07 08:21 | 53.63836 | -6.47148 | 35980 ft | 480 kts | 264° |
| 2026-05-07 08:22 | 53.63382 | -6.58312 | 35969 ft | 478 kts | 264° |
| 2026-05-07 08:22 | 53.62918 | -6.69398 | 35958 ft | 479 kts | 263° |
| 2026-05-07 08:23 | 53.62437 | -6.80651 | 35975 ft | 479 kts | 263° |
| 2026-05-07 08:23 | 53.61953 | -6.91706 | 35970 ft | 479 kts | 263° |
| 2026-05-07 08:24 | 53.61456 | -7.02823 | 35966 ft | 479 kts | 263° |
| 2026-05-07 08:24 | 53.60946 | -7.13986 | 35965 ft | 475 kts | 263° |
| 2026-05-07 08:25 | 53.60431 | -7.25006 | 35954 ft | 480 kts | 263° |
| 2026-05-07 08:25 | 53.59901 | -7.36151 | 35956 ft | 477 kts | 263° |
| 2026-05-07 08:26 | 53.59116 | -7.52841 | 35948 ft | 482 kts | 263° |
| 2026-05-07 08:26 | 53.58593 | -7.63917 | 35944 ft | 476 kts | 263° |
| 2026-05-07 08:27 | 53.58054 | -7.75032 | 35943 ft | 477 kts | 262° |
| 2026-05-07 08:27 | 53.57511 | -7.86045 | 35941 ft | 475 kts | 262° |
| 2026-05-07 08:28 | 53.56953 | -7.97118 | 35946 ft | 478 kts | 262° |
| 2026-05-07 08:28 | 53.56385 | -8.08211 | 35944 ft | 478 kts | 262° |
| 2026-05-07 08:29 | 53.55809 | -8.19242 | 35937 ft | 476 kts | 262° |
| 2026-05-07 08:29 | 53.55220 | -8.30323 | 35935 ft | 476 kts | 262° |
| 2026-05-07 08:30 | 53.54625 | -8.41320 | 35934 ft | 474 kts | 262° |
| 2026-05-07 08:30 | 53.54017 | -8.52365 | 35932 ft | 476 kts | 262° |
| 2026-05-07 08:31 | 53.53402 | -8.63350 | 35937 ft | 477 kts | 262° |
| 2026-05-07 08:31 | 53.52776 | -8.74371 | 35927 ft | 473 kts | 261° |
| 2026-05-07 08:32 | 53.52138 | -8.85400 | 35930 ft | 475 kts | 261° |
| 2026-05-07 08:32 | 53.51494 | -8.96350 | 35927 ft | 473 kts | 261° |
| 2026-05-07 08:33 | 53.50838 | -9.07326 | 35931 ft | 476 kts | 261° |
| 2026-05-07 08:33 | 53.50176 | -9.18269 | 35932 ft | 475 kts | 262° |
| 2026-05-07 08:34 | 53.49497 | -9.29293 | 35920 ft | 473 kts | 262° |
| 2026-05-07 08:34 | 53.48811 | -9.40255 | 35927 ft | 475 kts | 262° |
| 2026-05-07 08:35 | 53.48122 | -9.51129 | 35919 ft | 472 kts | 261° |
| 2026-05-07 08:35 | 53.47416 | -9.62098 | 35918 ft | 474 kts | 262° |
| 2026-05-07 08:36 | 53.46703 | -9.73006 | 35920 ft | 471 kts | 261° |
| 2026-05-07 08:36 | 53.45979 | -9.83939 | 35911 ft | 472 kts | 261° |
| 2026-05-07 08:37 | 53.45251 | -9.94776 | 35913 ft | 471 kts | 261° |
| 2026-05-07 08:37 | 53.44511 | -10.05646 | 35910 ft | 472 kts | 261° |
| 2026-05-07 08:38 | 53.43758 | -10.16549 | 35911 ft | 473 kts | 261° |
| 2026-05-07 08:38 | 53.42996 | -10.27445 | 35910 ft | 472 kts | 261° |
| 2026-05-07 08:39 | 53.42228 | -10.38277 | 35902 ft | 471 kts | 261° |
| 2026-05-07 08:39 | 53.41449 | -10.49115 | 35904 ft | 472 kts | 261° |
| 2026-05-07 08:40 | 53.40654 | -10.60050 | 35906 ft | 471 kts | 261° |
| 2026-05-07 08:40 | 53.39861 | -10.70813 | 35901 ft | 468 kts | 260° |
| 2026-05-07 08:41 | 53.39052 | -10.81643 | 35903 ft | 471 kts | 260° |
| 2026-05-07 08:41 | 53.38234 | -10.92462 | 35894 ft | 471 kts | 260° |
| 2026-05-07 08:42 | 53.37407 | -11.03280 | 35900 ft | 470 kts | 260° |
| 2026-05-07 08:42 | 53.36567 | -11.14130 | 35897 ft | 470 kts | 260° |
| 2026-05-07 08:43 | 53.35728 | -11.24842 | 35894 ft | 465 kts | 260° |
| 2026-05-07 08:43 | 53.34872 | -11.35633 | 35902 ft | 469 kts | 260° |
| 2026-05-07 08:44 | 53.34013 | -11.46347 | 35885 ft | 466 kts | 259° |
| 2026-05-07 08:44 | 53.33145 | -11.57028 | 35890 ft | 467 kts | 260° |
| 2026-05-07 08:45 | 53.32273 | -11.67665 | 35892 ft | 466 kts | 259° |
| 2026-05-07 08:45 | 53.31381 | -11.78403 | 35895 ft | 467 kts | 259° |
| 2026-05-07 08:46 | 53.30486 | -11.89072 | 35894 ft | 463 kts | 259° |
| 2026-05-07 08:46 | 53.29585 | -11.99691 | 35894 ft | 463 kts | 259° |
| 2026-05-07 08:47 | 53.28675 | -12.10289 | 35897 ft | 463 kts | 259° |
| 2026-05-07 08:47 | 53.27757 | -12.20882 | 35891 ft | 462 kts | 259° |
| 2026-05-07 08:48 | 53.26828 | -12.31475 | 35896 ft | 465 kts | 259° |
| 2026-05-07 08:48 | 53.25888 | -12.42108 | 35888 ft | 458 kts | 259° |
| 2026-05-07 08:49 | 53.24945 | -12.52639 | 35887 ft | 461 kts | 259° |
| 2026-05-07 08:49 | 53.23994 | -12.63154 | 35900 ft | 460 kts | 259° |
| 2026-05-07 08:50 | 53.23034 | -12.73666 | 35890 ft | 459 kts | 258° |
| 2026-05-07 08:50 | 53.22074 | -12.84078 | 35893 ft | 456 kts | 258° |
| 2026-05-07 08:51 | 53.21101 | -12.94528 | 35887 ft | 457 kts | 258° |
| 2026-05-07 08:51 | 53.20120 | -13.04949 | 35890 ft | 459 kts | 258° |
| 2026-05-07 08:52 | 53.19125 | -13.15430 | 35890 ft | 456 kts | 258° |
| 2026-05-07 08:52 | 53.18137 | -13.25735 | 35904 ft | 455 kts | 258° |
| 2026-05-07 08:53 | 53.17125 | -13.36179 | 35890 ft | 455 kts | 258° |
| 2026-05-07 08:53 | 53.16113 | -13.46537 | 35898 ft | 454 kts | 258° |
| 2026-05-07 08:54 | 53.15098 | -13.56827 | 35924 ft | 452 kts | 259° |
| 2026-05-07 08:54 | 53.14073 | -13.67119 | 35895 ft | 453 kts | 258° |
| 2026-05-07 08:55 | 53.13037 | -13.77437 | 35900 ft | 453 kts | 258° |
| 2026-05-07 08:55 | 53.11998 | -13.87688 | 35919 ft | 450 kts | 258° |
| 2026-05-07 08:56 | 53.10946 | -13.97964 | 35882 ft | 450 kts | 258° |
| 2026-05-07 08:56 | 53.09896 | -14.08145 | 35866 ft | 451 kts | 258° |
| 2026-05-07 08:57 | 53.08827 | -14.18412 | 35910 ft | 450 kts | 258° |
| 2026-05-07 08:57 | 53.07762 | -14.28557 | 35931 ft | 450 kts | 258° |
| 2026-05-07 08:58 | 53.06678 | -14.38786 | 35902 ft | 449 kts | 258° |
| 2026-05-07 08:58 | 53.05590 | -14.48977 | 35885 ft | 449 kts | 258° |
| 2026-05-07 08:59 | 53.05038 | -14.54106 | 36065 ft | 451 kts | 258° |
| 2026-05-07 08:59 | 53.04490 | -14.59184 | 35952 ft | 446 kts | 258° |
| 2026-05-07 08:59 | 53.03404 | -14.69190 | 35773 ft | 444 kts | 257° |
| 2026-05-07 09:00 | 53.02847 | -14.74274 | 36070 ft | 448 kts | 257° |
| 2026-05-07 09:00 | 53.02294 | -14.79309 | 35938 ft | 447 kts | 257° |
| 2026-05-07 09:00 | 53.01183 | -14.89378 | 35907 ft | 442 kts | 257° |
| 2026-05-07 09:01 | 53.00090 | -14.99337 | 35919 ft | 443 kts | 260° |
| 2026-05-07 09:01 | 53.00006 | -15.09610 | 35912 ft | 449 kts | 270° |
| 2026-05-07 09:02 | 53.00302 | -15.19951 | 35903 ft | 448 kts | 269° |
| 2026-05-07 09:02 | 53.00543 | -15.30164 | 35930 ft | 447 kts | 269° |
| 2026-05-07 09:03 | 53.00754 | -15.40480 | 35940 ft | 446 kts | 269° |
| 2026-05-07 09:03 | 53.00943 | -15.50740 | 35931 ft | 446 kts | 269° |
| 2026-05-07 09:04 | 53.01116 | -15.60984 | 35930 ft | 447 kts | 269° |
| 2026-05-07 09:04 | 53.01278 | -15.71264 | 35932 ft | 445 kts | 268° |
| 2026-05-07 09:05 | 53.01429 | -15.81533 | 35953 ft | 447 kts | 268° |
| 2026-05-07 09:05 | 53.01570 | -15.91763 | 35942 ft | 447 kts | 269° |
| 2026-05-07 09:06 | 53.01703 | -16.02037 | 35951 ft | 446 kts | 268° |
| 2026-05-07 09:06 | 53.01826 | -16.12301 | 35906 ft | 445 kts | 269° |
| 2026-05-07 09:07 | 53.01940 | -16.22543 | 35937 ft | 447 kts | 269° |
| 2026-05-07 09:07 | 53.02045 | -16.32784 | 35932 ft | 443 kts | 269° |
| 2026-05-07 09:08 | 53.02142 | -16.43009 | 35936 ft | 446 kts | 269° |
| 2026-05-07 09:08 | 53.02229 | -16.53262 | 35940 ft | 446 kts | 269° |
| 2026-05-07 09:09 | 53.02308 | -16.63517 | 35944 ft | 447 kts | 269° |
| 2026-05-07 09:09 | 53.02378 | -16.73788 | 35949 ft | 445 kts | 268° |
| 2026-05-07 09:10 | 53.02439 | -16.84066 | 35937 ft | 446 kts | 269° |
| 2026-05-07 09:10 | 53.02491 | -16.94294 | 35928 ft | 445 kts | 269° |
| 2026-05-07 09:11 | 53.02535 | -17.04529 | 35944 ft | 446 kts | 269° |
| 2026-05-07 09:11 | 53.02570 | -17.14754 | 35948 ft | 446 kts | 269° |
| 2026-05-07 09:12 | 53.02596 | -17.25011 | 35890 ft | 445 kts | 269° |
| 2026-05-07 09:12 | 53.02613 | -17.35306 | 35946 ft | 447 kts | 269° |
| 2026-05-07 09:13 | 53.02621 | -17.45558 | 35950 ft | 446 kts | 269° |
| 2026-05-07 09:13 | 53.02620 | -17.55825 | 35955 ft | 446 kts | 269° |
| 2026-05-07 09:14 | 53.02611 | -17.66083 | 35925 ft | 446 kts | 268° |
| 2026-05-07 09:14 | 53.02593 | -17.76332 | 35917 ft | 447 kts | 268° |
| 2026-05-07 09:15 | 53.02565 | -17.86704 | 35954 ft | 450 kts | 268° |
| 2026-05-07 09:15 | 53.02529 | -17.97002 | 35949 ft | 447 kts | 268° |
| 2026-05-07 09:16 | 53.02484 | -18.07301 | 35940 ft | 449 kts | 268° |
| 2026-05-07 09:16 | 53.02430 | -18.17662 | 35950 ft | 449 kts | 269° |
| 2026-05-07 09:17 | 53.02367 | -18.27953 | 35945 ft | 449 kts | 269° |
| 2026-05-07 09:17 | 53.02295 | -18.38275 | 35967 ft | 449 kts | 269° |
| 2026-05-07 09:18 | 53.02214 | -18.48619 | 35943 ft | 450 kts | 269° |
| 2026-05-07 09:18 | 53.02124 | -18.58973 | 35972 ft | 451 kts | 269° |
| 2026-05-07 09:19 | 53.02024 | -18.69353 | 35932 ft | 449 kts | 268° |